Time;durP1;ratioP1;P1;durP2;ratioP2;P2;SDS_P1;SDS_P2;PMS_P1;PMS_P2;Temp;Humidity;BMP_temperature;BMP_pressure;BME280_temperature;BME280_humidity;BME280_pressure;Samples;Min_cycle;Max_cycle;Signal;HPM_P1;HPM_P2
2023/04/03 00:00:16;;;;;;;4.10;2.70;;;17.70;45.40;;;;;;5037527;28;20192;-79
2023/04/03 00:02:43;;;;;;;5.65;3.10;;;17.70;45.50;;;;;;5037055;28;20674;-79
2023/04/03 00:05:10;;;;;;;3.03;2.58;;;17.60;45.60;;;;;;5036992;28;20685;-79
2023/04/03 00:07:38;;;;;;;4.30;2.95;;;17.60;45.40;;;;;;5036445;28;20222;-79
2023/04/03 00:10:06;;;;;;;2.90;2.33;;;17.60;45.60;;;;;;5036975;28;20729;-79
2023/04/03 00:12:33;;;;;;;4.07;2.65;;;17.60;45.70;;;;;;5037838;28;20208;-79
2023/04/03 00:15:01;;;;;;;3.13;2.30;;;17.60;45.50;;;;;;5036128;28;20224;-79
2023/04/03 00:17:29;;;;;;;3.40;2.42;;;17.60;45.80;;;;;;5035639;28;20212;-79
2023/04/03 00:22:29;;;;;;;4.53;2.80;;;17.60;45.70;;;;;;5032972;28;20613;-81
2023/04/03 00:24:57;;;;;;;4.55;2.55;;;17.50;45.70;;;;;;5033321;28;20227;-82
2023/04/03 00:27:24;;;;;;;4.60;2.40;;;17.50;45.80;;;;;;5030894;28;20212;-81
2023/04/03 00:29:52;;;;;;;3.22;2.33;;;17.50;45.80;;;;;;5020874;28;20204;-81
2023/04/03 00:32:19;;;;;;;3.90;2.40;;;17.50;45.70;;;;;;5020852;28;20246;-80
2023/04/03 00:34:48;;;;;;;3.45;2.67;;;17.50;45.80;;;;;;5036788;28;20282;-81
2023/04/03 00:37:15;;;;;;;4.00;2.20;;;17.50;45.90;;;;;;5036939;28;20211;-81
2023/04/03 00:39:43;;;;;;;2.95;2.50;;;17.50;45.70;;;;;;5036794;28;20195;-81
2023/04/03 00:42:10;;;;;;;3.40;2.65;;;17.50;45.80;;;;;;5020468;28;20720;-81
2023/04/03 00:45:29;;;;;;;2.63;2.40;;;17.50;46.00;;;;;;5037882;28;20340;-81
2023/04/03 00:47:59;;;;;;;2.92;2.40;;;17.40;45.80;;;;;;4976912;28;20229;-82
2023/04/03 00:50:27;;;;;;;2.60;2.25;;;17.40;45.90;;;;;;4976834;28;20292;-81
2023/04/03 00:52:54;;;;;;;2.53;2.28;;;17.40;45.70;;;;;;5004775;28;20258;-81
2023/04/03 00:55:22;;;;;;;3.47;2.47;;;17.40;45.80;;;;;;5036829;28;20207;-81
2023/04/03 00:57:49;;;;;;;2.63;2.42;;;17.40;45.90;;;;;;5041423;28;20219;-81
2023/04/03 01:00:19;;;;;;;3.63;2.40;;;17.40;45.90;;;;;;5045317;28;20203;-81
2023/04/03 01:02:47;;;;;;;2.63;2.05;;;17.40;46.50;;;;;;5043401;28;20222;-81
2023/04/03 01:05:15;;;;;;;2.90;2.20;;;17.40;45.80;;;;;;5042365;28;20188;-81
2023/04/03 01:07:44;;;;;;;3.67;2.20;;;17.40;45.90;;;;;;5037699;28;20219;-81
2023/04/03 01:10:13;;;;;;;2.80;2.20;;;17.30;45.80;;;;;;5054881;28;20613;-81
2023/04/03 01:12:41;;;;;;;2.78;2.30;;;17.30;45.90;;;;;;5020785;28;20211;-81
2023/04/03 01:15:10;;;;;;;4.10;2.40;;;17.30;45.60;;;;;;5037890;28;20271;-81
2023/04/03 01:17:39;;;;;;;2.17;1.98;;;17.30;45.60;;;;;;5037694;28;20219;-81
2023/04/03 01:20:32;;;;;;;3.10;2.33;;;17.30;45.60;;;;;;5037179;28;20269;-81
2023/04/03 01:23:11;;;;;;;3.47;2.55;;;17.30;45.80;;;;;;5036555;28;20211;-81
2023/04/03 01:25:39;;;;;;;2.92;2.30;;;17.30;45.90;;;;;;5036841;28;20187;-81
2023/04/03 01:28:07;;;;;;;2.83;2.40;;;17.30;45.90;;;;;;5036572;28;20219;-81
2023/04/03 01:30:36;;;;;;;3.45;2.15;;;17.30;45.80;;;;;;5019724;28;20199;-81
2023/04/03 01:33:05;;;;;;;2.92;2.15;;;17.30;45.90;;;;;;5036178;28;20211;-81
2023/04/03 01:35:33;;;;;;;3.75;2.28;;;17.30;46.00;;;;;;5035693;28;20253;-82
2023/04/03 01:38:00;;;;;;;2.30;2.10;;;17.30;46.50;;;;;;5019841;28;20242;-82
2023/04/03 01:40:27;;;;;;;3.17;2.30;;;17.20;45.70;;;;;;5035996;28;20207;-82
2023/04/03 01:42:55;;;;;;;2.20;2.00;;;17.30;45.80;;;;;;5036031;28;20195;-82
2023/04/03 01:45:22;;;;;;;4.13;2.50;;;17.20;45.80;;;;;;5035732;28;20264;-82
2023/04/03 01:47:49;;;;;;;2.38;2.17;;;17.30;45.80;;;;;;5035697;28;20752;-81
2023/04/03 01:50:18;;;;;;;2.30;2.10;;;17.20;45.70;;;;;;5035486;28;20199;-80
2023/04/03 01:52:46;;;;;;;1.92;1.83;;;17.20;45.60;;;;;;5019334;28;20211;-81
2023/04/03 01:55:13;;;;;;;2.30;2.10;;;17.20;45.70;;;;;;5035759;28;20203;-81
2023/04/03 01:57:40;;;;;;;4.50;2.40;;;17.20;45.80;;;;;;5035934;28;20219;-81
2023/04/03 02:00:09;;;;;;;2.22;2.03;;;17.20;45.70;;;;;;5036990;28;20198;-82
2023/04/03 02:02:42;;;;;;;3.00;2.20;;;17.20;45.80;;;;;;5036993;28;20245;-81
2023/04/03 02:05:10;;;;;;;2.78;2.50;;;17.20;45.80;;;;;;5035869;28;20291;-82
2023/04/03 02:07:39;;;;;;;2.35;2.03;;;17.20;45.80;;;;;;5036840;28;20229;-82
2023/04/03 02:10:06;;;;;;;2.88;2.15;;;17.20;45.80;;;;;;5037582;28;20223;-82
2023/04/03 02:12:33;;;;;;;2.50;2.30;;;17.10;45.80;;;;;;5036177;28;20307;-81
2023/04/03 02:15:05;;;;;;;1.95;1.85;;;17.20;45.90;;;;;;5036089;28;20282;-82
2023/04/03 02:17:36;;;;;;;2.67;2.15;;;17.10;46.00;;;;;;5020120;28;20223;-82
2023/04/03 02:20:04;;;;;;;3.80;1.90;;;17.10;46.00;;;;;;5036489;28;20287;-82
2023/04/03 02:22:31;;;;;;;2.20;1.90;;;17.10;46.00;;;;;;5036278;28;20196;-82
2023/04/03 02:24:59;;;;;;;3.00;1.92;;;17.10;46.20;;;;;;5036450;28;20203;-82
2023/04/03 02:27:27;;;;;;;2.95;2.10;;;17.10;46.10;;;;;;5036259;28;20595;-81
2023/04/03 02:29:54;;;;;;;2.63;2.22;;;17.10;46.10;;;;;;5038105;28;20192;-82
2023/04/03 02:32:21;;;;;;;2.40;2.20;;;17.10;45.80;;;;;;5036179;28;20216;-81
2023/04/03 02:34:48;;;;;;;3.33;2.00;;;17.10;46.00;;;;;;5036586;28;20205;-82
2023/04/03 02:37:16;;;;;;;3.42;2.33;;;17.00;46.00;;;;;;5036148;28;20298;-82
2023/04/03 02:39:45;;;;;;;2.30;2.10;;;17.00;46.10;;;;;;5036222;28;20195;-82
2023/04/03 02:42:14;;;;;;;2.63;2.13;;;17.00;46.10;;;;;;5036207;28;20191;-82
2023/04/03 02:44:41;;;;;;;2.35;2.15;;;17.00;46.10;;;;;;5036942;28;20196;-82
2023/04/03 02:47:10;;;;;;;2.35;2.08;;;17.00;46.00;;;;;;5036224;28;20235;-82
2023/04/03 02:49:37;;;;;;;2.47;2.20;;;17.00;46.20;;;;;;5022771;28;20225;-82
2023/04/03 02:52:04;;;;;;;2.20;2.00;;;17.00;45.80;;;;;;5039475;28;20289;-82
2023/04/03 02:54:32;;;;;;;2.30;2.10;;;17.00;45.60;;;;;;5039748;28;20249;-82
2023/04/03 02:57:03;;;;;;;2.30;2.00;;;17.00;45.60;;;;;;5039146;28;20298;-82
2023/04/03 02:59:32;;;;;;;2.30;2.10;;;17.00;45.50;;;;;;5039890;28;20192;-82
2023/04/03 03:02:00;;;;;;;2.78;2.00;;;17.00;45.80;;;;;;5039696;28;20215;-81
2023/04/03 03:04:27;;;;;;;2.20;2.00;;;17.00;45.40;;;;;;5039217;28;20222;-81
2023/04/03 03:06:54;;;;;;;2.20;2.00;;;17.00;45.40;;;;;;5038761;28;20219;-81
2023/04/03 03:09:21;;;;;;;2.97;1.83;;;17.00;45.40;;;;;;5038944;28;20241;-81
2023/04/03 03:11:48;;;;;;;2.28;2.08;;;17.00;45.20;;;;;;5022413;28;20206;-81
2023/04/03 03:14:15;;;;;;;2.10;1.90;;;17.00;45.20;;;;;;5038967;28;20195;-81
2023/04/03 03:16:44;;;;;;;2.35;1.90;;;17.00;45.30;;;;;;5038383;28;20270;-81
2023/04/03 03:19:11;;;;;;;1.80;1.70;;;17.00;45.00;;;;;;5038490;28;20241;-81
2023/04/03 03:21:39;;;;;;;1.70;1.60;;;17.00;45.00;;;;;;5038398;28;20229;-81
2023/04/03 03:24:07;;;;;;;1.90;1.80;;;17.00;45.20;;;;;;5022304;28;20196;-81
2023/04/03 03:26:35;;;;;;;2.42;1.95;;;17.00;45.40;;;;;;5038742;28;20211;-80
2023/04/03 03:29:02;;;;;;;2.60;1.85;;;17.00;45.20;;;;;;5038231;28;20688;-81
2023/04/03 03:31:30;;;;;;;2.55;2.30;;;17.00;45.20;;;;;;5038953;28;20220;-81
2023/04/03 03:33:59;;;;;;;2.72;2.10;;;17.00;45.20;;;;;;5038128;28;20218;-81
2023/04/03 03:36:26;;;;;;;2.40;2.00;;;17.10;44.90;;;;;;5038326;28;20219;-81
2023/04/03 03:38:53;;;;;;;2.00;1.80;;;17.10;44.80;;;;;;5038127;28;20219;-81
2023/04/03 03:41:20;;;;;;;1.95;1.75;;;17.00;44.70;;;;;;5037945;28;20200;-81
2023/04/03 03:43:47;;;;;;;2.03;1.90;;;17.10;44.60;;;;;;5038106;28;20192;-81
2023/04/03 03:46:16;;;;;;;2.45;1.90;;;17.10;44.20;;;;;;5037848;28;20306;-81
2023/04/03 03:48:44;;;;;;;2.05;1.85;;;17.10;44.00;;;;;;5022357;28;20203;-81
2023/04/03 03:51:12;;;;;;;2.03;1.83;;;17.10;44.10;;;;;;5038254;28;20187;-81
2023/04/03 03:53:40;;;;;;;2.70;2.10;;;17.10;44.20;;;;;;5038352;28;20219;-81
2023/04/03 03:56:13;;;;;;;2.28;1.98;;;17.10;45.00;;;;;;5038265;28;20215;-81
2023/04/03 03:58:41;;;;;;;2.33;1.83;;;17.10;44.30;;;;;;5037593;28;20241;-81
2023/04/03 04:01:08;;;;;;;2.55;1.88;;;17.10;44.30;;;;;;5037788;28;20253;-81
2023/04/03 04:03:41;;;;;;;2.30;2.05;;;17.10;44.30;;;;;;5037548;28;20211;-81
2023/04/03 04:06:11;;;;;;;1.90;1.80;;;17.10;44.70;;;;;;5037805;28;20253;-81
2023/04/03 04:08:39;;;;;;;2.13;1.92;;;17.10;44.40;;;;;;5021687;28;20199;-81
2023/04/03 04:11:08;;;;;;;2.13;1.92;;;17.10;44.70;;;;;;5037652;28;20201;-81
2023/04/03 04:13:36;;;;;;;2.35;2.00;;;17.10;44.50;;;;;;5021417;28;20215;-81
2023/04/03 04:16:05;;;;;;;2.13;1.90;;;17.00;44.50;;;;;;5037641;28;20291;-81
2023/04/03 04:18:33;;;;;;;2.45;1.88;;;17.10;44.50;;;;;;5037428;28;20211;-81
2023/04/03 04:21:01;;;;;;;3.00;1.90;;;17.10;45.00;;;;;;5037584;28;20668;-81
2023/04/03 04:23:30;;;;;;;2.05;1.80;;;17.00;44.50;;;;;;5021745;28;20256;-81
2023/04/03 04:26:00;;;;;;;2.40;2.20;;;17.10;44.80;;;;;;5037059;28;20188;-81
2023/04/03 04:28:30;;;;;;;3.25;1.92;;;17.00;44.20;;;;;;5022504;28;20188;-81
2023/04/03 04:30:59;;;;;;;2.13;1.90;;;17.00;44.70;;;;;;5037574;28;20677;-81
2023/04/03 04:33:28;;;;;;;2.00;1.90;;;17.00;44.70;;;;;;5037242;28;20276;-81
2023/04/03 04:35:56;;;;;;;2.00;1.80;;;17.00;44.70;;;;;;5037038;28;20195;-81
2023/04/03 04:38:24;;;;;;;1.85;1.70;;;17.00;44.70;;;;;;5037180;28;20211;-81
2023/04/03 04:40:54;;;;;;;1.77;1.67;;;17.00;44.90;;;;;;5037114;28;20208;-81
2023/04/03 04:43:23;;;;;;;2.20;1.90;;;17.00;44.80;;;;;;5037597;28;20197;-81
2023/04/03 04:46:02;;;;;;;1.95;1.85;;;17.00;44.90;;;;;;5021576;28;20187;-81
2023/04/03 04:48:30;;;;;;;2.90;2.20;;;17.10;44.70;;;;;;5037477;28;20183;-82
2023/04/03 04:50:57;;;;;;;2.35;1.80;;;17.00;44.60;;;;;;5036755;28;20282;-82
2023/04/03 04:53:25;;;;;;;1.98;1.80;;;17.00;44.50;;;;;;5036371;28;20704;-82
2023/04/03 04:55:54;;;;;;;2.35;1.80;;;17.00;44.50;;;;;;5036397;28;20265;-82
2023/04/03 04:58:21;;;;;;;3.05;1.95;;;17.00;44.50;;;;;;5036697;28;20203;-81
2023/04/03 05:00:48;;;;;;;2.00;1.80;;;17.00;44.60;;;;;;5036608;28;20199;-81
2023/04/03 05:03:16;;;;;;;1.77;1.67;;;17.00;44.50;;;;;;5036609;28;20191;-82
2023/04/03 05:05:45;;;;;;;1.70;1.60;;;17.00;44.50;;;;;;5036360;28;20199;-82
2023/04/03 05:08:12;;;;;;;1.98;1.70;;;17.10;44.40;;;;;;5036383;28;20206;-82
2023/04/03 05:10:42;;;;;;;1.98;1.80;;;17.10;44.30;;;;;;5019701;28;20196;-82
2023/04/03 05:13:12;;;;;;;2.00;1.90;;;17.10;44.90;;;;;;5020901;28;20261;-82
2023/04/03 05:15:39;;;;;;;1.77;1.67;;;17.10;43.60;;;;;;5036308;28;20195;-82
2023/04/03 05:18:07;;;;;;;3.45;1.95;;;17.20;43.60;;;;;;5020210;28;20215;-82
2023/04/03 05:20:34;;;;;;;2.10;1.70;;;17.20;43.70;;;;;;5036972;28;20256;-82
2023/04/03 05:23:02;;;;;;;1.95;1.80;;;17.20;44.00;;;;;;5036741;28;20282;-82
2023/04/03 05:25:29;;;;;;;1.83;1.70;;;17.20;44.30;;;;;;5036458;28;20214;-82
2023/04/03 05:27:57;;;;;;;1.70;1.60;;;17.20;44.70;;;;;;5036351;28;20216;-82
2023/04/03 05:30:25;;;;;;;2.30;2.00;;;17.20;44.60;;;;;;5021114;28;20203;-82
2023/04/03 05:32:53;;;;;;;2.30;1.90;;;17.20;44.70;;;;;;5020468;28;20223;-83
2023/04/03 05:35:31;;;;;;;2.08;1.88;;;17.30;44.90;;;;;;5036480;28;20662;-83
2023/04/03 05:38:01;;;;;;;1.98;1.73;;;17.30;44.90;;;;;;5036469;28;20216;-82
2023/04/03 05:40:28;;;;;;;2.30;2.10;;;17.30;44.50;;;;;;5036918;28;20195;-82
2023/04/03 05:42:57;;;;;;;2.08;1.90;;;17.40;44.70;;;;;;5020195;28;20191;-83
2023/04/03 05:45:27;;;;;;;3.20;1.88;;;17.40;45.10;;;;;;5036281;28;20680;-83
2023/04/03 05:47:55;;;;;;;2.55;1.85;;;17.40;45.00;;;;;;5036228;28;20297;-82
2023/04/03 05:50:22;;;;;;;1.75;1.65;;;17.50;44.50;;;;;;5036297;28;20195;-83
2023/04/03 05:52:52;;;;;;;2.00;1.77;;;17.60;43.90;;;;;;5019918;28;20269;-85
2023/04/03 05:55:19;;;;;;;1.95;1.80;;;17.70;44.20;;;;;;5036273;28;20200;-85
2023/04/03 05:57:46;;;;;;;3.53;2.20;;;17.70;44.20;;;;;;5036127;28;20615;-84
2023/04/03 06:00:15;;;;;;;2.30;1.80;;;17.80;43.90;;;;;;5036287;28;20265;-84
2023/04/03 06:02:49;;;;;;;2.70;2.05;;;17.90;43.90;;;;;;5036536;28;20673;-84
2023/04/03 06:05:21;;;;;;;1.90;1.70;;;17.90;43.90;;;;;;5020418;28;20209;-83
2023/04/03 06:07:49;;;;;;;2.55;2.05;;;17.90;43.50;;;;;;5035991;28;20567;-83
2023/04/03 06:10:16;;;;;;;2.88;1.60;;;18.00;42.80;;;;;;5037099;28;20192;-84
2023/04/03 06:12:43;;;;;;;2.33;1.88;;;18.10;43.00;;;;;;5037054;28;20191;-84
2023/04/03 06:15:11;;;;;;;1.80;1.60;;;18.10;43.00;;;;;;5037255;28;20231;-83
2023/04/03 06:17:40;;;;;;;2.03;1.70;;;18.10;43.00;;;;;;5038003;28;20592;-81
2023/04/03 06:23:12;;;;;;;2.78;1.92;;;18.20;42.20;;;;;;5025941;28;20219;-79
2023/04/03 06:25:40;;;;;;;1.95;1.75;;;18.20;43.00;;;;;;5041894;28;20336;-79
2023/04/03 06:28:09;;;;;;;3.50;2.05;;;18.20;42.40;;;;;;5041296;28;20274;-79
2023/04/03 06:30:36;;;;;;;1.85;1.75;;;18.20;43.00;;;;;;5041014;28;20225;-79
2023/04/03 06:33:04;;;;;;;2.75;1.80;;;18.20;42.70;;;;;;5023677;28;20221;-79
2023/04/03 06:35:30;;;;;;;2.10;1.75;;;18.20;42.30;;;;;;5022763;28;20544;-78
2023/04/03 06:37:58;;;;;;;1.90;1.80;;;18.20;42.20;;;;;;5039173;28;20284;-79
2023/04/03 06:40:27;;;;;;;1.88;1.77;;;18.20;42.50;;;;;;5022241;28;20204;-79
2023/04/03 06:42:54;;;;;;;2.17;1.90;;;18.20;42.80;;;;;;5022878;28;20284;-79
2023/04/03 06:45:21;;;;;;;2.08;1.75;;;18.20;42.10;;;;;;5022062;28;20307;-79
2023/04/03 06:47:48;;;;;;;2.15;1.67;;;18.20;42.60;;;;;;5020864;28;20216;-79
2023/04/03 06:50:17;;;;;;;2.13;1.70;;;18.20;42.10;;;;;;5020357;28;20652;-79
2023/04/03 06:52:44;;;;;;;2.25;1.60;;;18.20;42.20;;;;;;5037635;28;20205;-79
2023/04/03 06:55:12;;;;;;;2.20;1.80;;;18.10;41.80;;;;;;5037875;28;20212;-79
2023/04/03 06:57:40;;;;;;;2.05;1.92;;;18.20;42.40;;;;;;5021864;28;20235;-78
2023/04/03 07:00:09;;;;;;;1.80;1.70;;;18.20;42.30;;;;;;5036028;28;20193;-78
2023/04/03 07:02:37;;;;;;;2.05;1.75;;;18.20;42.10;;;;;;5002683;28;20200;-78
2023/04/03 07:05:05;;;;;;;1.88;1.40;;;18.10;41.60;;;;;;5036527;28;20251;-78
2023/04/03 07:07:33;;;;;;;2.53;1.80;;;18.10;41.60;;;;;;5019706;28;20742;-79
2023/04/03 07:10:00;;;;;;;2.28;1.80;;;18.20;41.70;;;;;;5017767;28;20204;-79
2023/04/03 07:12:28;;;;;;;1.83;1.40;;;18.20;41.60;;;;;;5000667;28;20235;-79
2023/04/03 07:14:56;;;;;;;1.90;1.70;;;18.20;41.90;;;;;;5018016;28;20286;-79
2023/04/03 07:17:23;;;;;;;2.08;1.70;;;18.20;41.10;;;;;;5017446;28;20224;-79
2023/04/03 07:19:50;;;;;;;2.10;1.90;;;18.20;41.80;;;;;;5033861;28;20585;-79
2023/04/03 07:22:18;;;;;;;1.90;1.80;;;18.30;41.80;;;;;;5034015;28;20282;-79
2023/04/03 07:24:47;;;;;;;2.90;2.17;;;18.20;41.90;;;;;;5000793;28;20197;-79
2023/04/03 07:27:13;;;;;;;2.78;1.70;;;18.30;41.80;;;;;;5017233;28;20691;-79
2023/04/03 07:29:42;;;;;;;3.15;2.30;;;18.30;41.70;;;;;;5017027;28;20303;-79
2023/04/03 07:32:11;;;;;;;2.30;2.10;;;18.30;41.10;;;;;;5033419;28;20239;-78
2023/04/03 07:34:38;;;;;;;2.67;1.85;;;18.30;40.90;;;;;;5000076;28;20252;-78
2023/04/03 07:37:06;;;;;;;1.95;1.70;;;18.40;41.40;;;;;;5033349;28;20584;-78
2023/04/03 07:39:33;;;;;;;2.75;1.80;;;18.30;41.40;;;;;;5017932;28;20199;-78
2023/04/03 07:42:00;;;;;;;1.70;1.60;;;18.40;41.80;;;;;;5034025;28;20243;-78
2023/04/03 07:44:27;;;;;;;2.33;1.70;;;18.50;41.40;;;;;;5034958;28;20291;-78
2023/04/03 07:46:55;;;;;;;2.55;1.85;;;18.50;41.70;;;;;;5033189;28;20225;-78
2023/04/03 07:49:24;;;;;;;2.78;1.75;;;18.60;41.70;;;;;;5016575;28;20263;-78
2023/04/03 07:51:51;;;;;;;1.65;1.52;;;18.60;40.50;;;;;;5017341;28;20265;-78
2023/04/03 07:54:18;;;;;;;2.63;1.90;;;18.70;42.10;;;;;;5015909;28;20587;-78
2023/04/03 07:56:45;;;;;;;3.08;1.95;;;18.70;40.70;;;;;;5032874;28;20220;-78
2023/04/03 07:59:13;;;;;;;1.67;1.58;;;18.80;40.90;;;;;;5033259;28;20600;-78
2023/04/03 08:01:39;;;;;;;1.77;1.67;;;18.80;41.40;;;;;;5015920;28;20201;-78
2023/04/03 08:04:07;;;;;;;2.42;1.70;;;18.90;41.40;;;;;;5032416;28;20260;-78
2023/04/03 08:06:36;;;;;;;1.60;1.50;;;18.90;40.10;;;;;;5016575;28;20228;-78
2023/04/03 08:09:03;;;;;;;2.47;1.77;;;19.00;41.20;;;;;;5016133;28;20229;-78
2023/04/03 08:11:31;;;;;;;1.80;1.70;;;19.00;41.40;;;;;;5016687;28;20197;-78
2023/04/03 08:13:58;;;;;;;2.72;1.58;;;19.00;40.50;;;;;;5016535;28;20674;-79
2023/04/03 08:16:26;;;;;;;2.08;1.73;;;19.00;41.80;;;;;;5016315;28;20235;-78
2023/04/03 08:18:53;;;;;;;1.70;1.60;;;19.00;40.50;;;;;;5016441;28;20200;-78
2023/04/03 08:21:21;;;;;;;2.47;1.70;;;19.00;40.40;;;;;;5032452;28;20219;-78
2023/04/03 08:23:51;;;;;;;1.65;1.55;;;19.00;40.20;;;;;;5016736;28;20211;-78
2023/04/03 08:26:20;;;;;;;1.73;1.63;;;19.00;39.90;;;;;;5016225;28;20714;-78
2023/04/03 08:28:47;;;;;;;1.60;1.50;;;19.00;39.70;;;;;;5016155;28;20231;-78
2023/04/03 08:31:15;;;;;;;2.05;1.67;;;19.00;40.70;;;;;;5016070;28;20683;-78
2023/04/03 08:33:42;;;;;;;2.88;1.77;;;19.00;40.50;;;;;;5032377;28;20232;-78
2023/04/03 08:36:31;;;;;;;2.17;1.80;;;19.10;41.00;;;;;;5017369;28;20806;-78
2023/04/03 08:39:00;;;;;;;1.80;1.67;;;19.00;40.90;;;;;;5033054;28;20208;-78
2023/04/03 08:41:31;;;;;;;2.00;1.75;;;19.00;40.30;;;;;;5016203;28;20258;-78
2023/04/03 08:44:15;;;;;;;2.67;1.77;;;19.00;40.30;;;;;;5016449;28;20279;-79
2023/04/03 08:46:53;;;;;;;2.05;1.80;;;19.10;40.50;;;;;;4999149;28;20645;-79
2023/04/03 08:49:23;;;;;;;1.60;1.50;;;19.10;40.30;;;;;;5016853;28;20199;-79
2023/04/03 08:51:51;;;;;;;1.70;1.60;;;19.20;40.60;;;;;;5033337;28;20228;-78
2023/04/03 08:54:29;;;;;;;1.70;1.60;;;19.20;40.30;;;;;;5035473;28;20730;-79
2023/04/03 08:56:57;;;;;;;1.52;1.42;;;19.30;41.10;;;;;;5017744;28;20217;-79
2023/04/03 08:59:27;;;;;;;2.13;1.70;;;19.30;41.20;;;;;;5020397;28;20255;-79
2023/04/03 09:01:54;;;;;;;1.77;1.67;;;19.40;40.10;;;;;;5032758;28;20205;-79
2023/04/03 09:04:21;;;;;;;1.70;1.60;;;19.40;39.60;;;;;;5037064;28;20200;-79
2023/04/03 09:06:51;;;;;;;1.60;1.50;;;19.40;40.20;;;;;;5040052;28;20227;-78
2023/04/03 09:09:27;;;;;;;1.60;1.50;;;19.40;39.20;;;;;;5008160;28;20201;-79
2023/04/03 09:11:56;;;;;;;1.70;1.60;;;19.40;40.10;;;;;;5033749;28;20211;-79
2023/04/03 09:14:25;;;;;;;2.30;1.60;;;19.40;39.70;;;;;;5031635;28;20556;-79
2023/04/03 09:16:55;;;;;;;1.80;1.70;;;19.50;39.70;;;;;;5017642;28;20215;-79
2023/04/03 09:19:24;;;;;;;1.70;1.60;;;19.50;39.80;;;;;;5037694;28;20188;-79
2023/04/03 09:21:52;;;;;;;2.08;1.80;;;19.50;39.70;;;;;;5022311;28;20243;-78
2023/04/03 09:24:19;;;;;;;1.70;1.60;;;19.50;40.70;;;;;;5020768;28;20663;-79
2023/04/03 09:26:50;;;;;;;2.00;1.70;;;19.50;39.40;;;;;;5020789;28;20266;-78
2023/04/03 09:29:20;;;;;;;1.83;1.65;;;19.40;39.50;;;;;;5021243;28;20197;-79
2023/04/03 09:31:48;;;;;;;1.50;1.40;;;19.40;39.60;;;;;;5020942;28;20197;-78
2023/04/03 09:34:20;;;;;;;1.70;1.60;;;19.40;40.00;;;;;;5020068;28;20217;-78
2023/04/03 09:36:48;;;;;;;1.70;1.60;;;19.50;40.00;;;;;;5039233;28;20231;-79
2023/04/03 09:39:16;;;;;;;1.55;1.40;;;19.50;40.50;;;;;;5023777;28;20223;-79
2023/04/03 09:41:43;;;;;;;1.90;1.70;;;19.50;39.40;;;;;;5024324;28;20239;-79
2023/04/03 09:44:35;;;;;;;1.80;1.70;;;19.50;39.30;;;;;;5023448;28;20188;-79
2023/04/03 09:47:18;;;;;;;1.80;1.70;;;19.40;38.50;;;;;;5017475;28;20220;-79
2023/04/03 09:49:46;;;;;;;1.77;1.65;;;19.40;39.20;;;;;;5033455;28;20260;-78
2023/04/03 09:52:20;;;;;;;1.60;1.50;;;19.40;39.50;;;;;;5014077;28;20193;-79
2023/04/03 09:54:47;;;;;;;3.38;1.50;;;19.40;38.80;;;;;;5015646;28;20299;-78
2023/04/03 09:57:14;;;;;;;1.70;1.60;;;19.50;39.40;;;;;;5016325;28;20290;-78
2023/04/03 09:59:46;;;;;;;2.28;1.73;;;19.50;39.70;;;;;;5039593;28;20630;-79
2023/04/03 10:02:35;;;;;;;1.65;1.52;;;19.50;39.40;;;;;;5040375;28;20636;-79
2023/04/03 10:05:02;;;;;;;2.00;1.50;;;19.40;38.60;;;;;;5023295;28;20213;-78
2023/04/03 10:07:35;;;;;;;1.75;1.65;;;19.40;38.70;;;;;;5023942;28;20224;-78
2023/04/03 10:10:04;;;;;;;1.60;1.50;;;19.40;38.40;;;;;;5023566;28;20204;-78
2023/04/03 10:12:33;;;;;;;1.90;1.60;;;19.40;39.60;;;;;;5023765;28;20204;-79
2023/04/03 10:15:02;;;;;;;2.40;1.60;;;19.40;39.70;;;;;;5039749;28;20221;-79
2023/04/03 10:17:38;;;;;;;1.40;1.30;;;19.40;38.40;;;;;;5023567;28;20327;-78
2023/04/03 10:20:11;;;;;;;1.90;1.63;;;19.30;38.90;;;;;;5023864;28;20211;-79
2023/04/03 10:22:42;;;;;;;1.50;1.40;;;19.30;38.50;;;;;;5040062;28;20565;-79
2023/04/03 10:25:14;;;;;;;1.85;1.55;;;19.30;39.70;;;;;;5024696;28;20200;-79
2023/04/03 10:27:46;;;;;;;1.55;1.40;;;19.30;39.50;;;;;;5023611;28;20227;-79
2023/04/03 10:30:27;;;;;;;1.90;1.70;;;19.30;39.40;;;;;;5025035;28;20276;-79
2023/04/03 10:32:59;;;;;;;1.85;1.70;;;19.30;38.80;;;;;;5024218;28;20204;-79
2023/04/03 10:35:35;;;;;;;1.65;1.50;;;19.30;39.00;;;;;;5024193;28;20213;-79
2023/04/03 10:38:06;;;;;;;2.03;1.80;;;19.20;39.40;;;;;;5023734;28;20230;-79
2023/04/03 10:40:36;;;;;;;1.42;1.30;;;19.20;39.00;;;;;;5024065;28;20698;-78
2023/04/03 10:43:07;;;;;;;1.65;1.55;;;19.20;38.90;;;;;;5020107;28;20216;-79
2023/04/03 10:45:46;;;;;;;2.40;1.60;;;19.30;39.30;;;;;;5017990;28;20193;-78
2023/04/03 10:48:17;;;;;;;1.88;1.63;;;19.20;38.20;;;;;;5018149;28;20234;-78
2023/04/03 10:50:46;;;;;;;2.80;1.55;;;19.20;39.10;;;;;;5038253;28;20201;-78
2023/04/03 10:53:18;;;;;;;2.10;1.70;;;19.20;39.00;;;;;;5023384;28;20212;-79
2023/04/03 10:55:49;;;;;;;1.52;1.40;;;19.20;39.00;;;;;;5039932;28;20215;-79
2023/04/03 10:58:23;;;;;;;2.13;1.40;;;19.10;38.70;;;;;;5041210;28;20192;-79
2023/04/03 11:00:52;;;;;;;1.52;1.42;;;19.20;38.90;;;;;;5040248;28;20205;-79
2023/04/03 11:03:27;;;;;;;2.65;1.58;;;19.20;39.30;;;;;;5022619;28;20311;-78
2023/04/03 11:05:55;;;;;;;2.28;1.60;;;19.20;39.20;;;;;;5034702;28;20250;-78
2023/04/03 11:08:27;;;;;;;1.60;1.50;;;19.20;39.10;;;;;;5033341;28;20300;-78
2023/04/03 11:10:56;;;;;;;1.83;1.55;;;19.20;39.70;;;;;;5034000;28;20193;-78
2023/04/03 11:13:25;;;;;;;2.42;1.40;;;19.20;39.10;;;;;;5017210;28;20201;-78
2023/04/03 11:15:55;;;;;;;1.58;1.48;;;19.20;39.50;;;;;;5017248;28;20220;-79
2023/04/03 11:18:23;;;;;;;1.55;1.40;;;19.10;38.40;;;;;;5016745;28;20211;-78
2023/04/03 11:20:58;;;;;;;2.00;1.73;;;19.10;38.50;;;;;;5017507;28;20617;-78
2023/04/03 11:23:26;;;;;;;1.50;1.40;;;19.10;38.50;;;;;;5016448;28;20626;-78
2023/04/03 11:25:55;;;;;;;1.70;1.30;;;19.10;39.70;;;;;;5019435;28;20193;-79
2023/04/03 11:28:22;;;;;;;1.60;1.50;;;19.10;39.60;;;;;;5040128;28;20208;-79
2023/04/03 11:30:51;;;;;;;2.28;1.60;;;19.10;38.30;;;;;;5023433;28;20547;-79
2023/04/03 11:33:37;;;;;;;1.70;1.30;;;19.10;39.20;;;;;;5023899;28;20204;-79
2023/04/03 11:36:06;;;;;;;1.73;1.60;;;19.10;38.50;;;;;;5036497;28;20209;-79
2023/04/03 11:38:36;;;;;;;1.70;1.50;;;19.10;38.80;;;;;;5034072;28;20650;-78
2023/04/03 11:41:05;;;;;;;1.50;1.40;;;19.10;38.70;;;;;;5033917;28;20216;-78
2023/04/03 11:43:32;;;;;;;2.00;1.40;;;19.10;38.80;;;;;;5023639;28;20216;-79
2023/04/03 11:46:00;;;;;;;3.88;1.30;;;19.10;39.10;;;;;;5023425;28;20197;-79
2023/04/03 11:48:50;;;;;;;1.75;1.40;;;19.20;38.20;;;;;;5023904;28;20204;-79
2023/04/03 11:51:40;;;;;;;2.67;1.52;;;19.20;39.10;;;;;;5041042;28;20207;-79
2023/04/03 11:54:36;;;;;;;1.88;1.60;;;19.20;38.30;;;;;;5024205;28;20193;-79
2023/04/03 11:57:38;;;;;;;3.38;1.55;;;19.20;39.10;;;;;;5007865;28;20247;-79
2023/04/03 12:00:39;;;;;;;1.42;1.33;;;19.20;38.50;;;;;;5040174;28;20197;-79
2023/04/03 12:03:31;;;;;;;1.83;1.30;;;19.30;39.10;;;;;;5023879;28;20211;-79
2023/04/03 12:06:38;;;;;;;1.42;1.30;;;19.30;38.70;;;;;;5008078;28;20289;-79
2023/04/03 12:09:07;;;;;;;1.50;1.40;;;19.30;38.80;;;;;;5016223;28;20215;-79
2023/04/03 12:11:34;;;;;;;1.55;1.45;;;19.30;39.00;;;;;;5032738;28;20219;-79
2023/04/03 12:14:05;;;;;;;2.03;1.60;;;19.30;38.80;;;;;;5023105;28;20206;-79
2023/04/03 12:16:34;;;;;;;1.63;1.52;;;19.30;37.90;;;;;;5025605;28;20244;-79
2023/04/03 12:19:03;;;;;;;1.60;1.50;;;19.30;38.00;;;;;;5024244;28;20247;-78
2023/04/03 12:22:07;;;;;;;1.60;1.50;;;19.30;39.00;;;;;;5024233;28;20228;-79
2023/04/03 12:24:34;;;;;;;2.38;1.60;;;19.30;39.40;;;;;;5024748;28;20193;-79
2023/04/03 12:27:05;;;;;;;2.08;1.40;;;19.30;38.30;;;;;;5008020;28;20321;-79
2023/04/03 12:29:35;;;;;;;2.08;1.50;;;19.30;37.60;;;;;;5019720;28;20212;-79
2023/04/03 12:32:10;;;;;;;2.15;1.70;;;19.30;38.30;;;;;;5017105;28;20644;-79
2023/04/03 12:34:45;;;;;;;2.83;1.50;;;19.20;37.50;;;;;;5024871;28;20185;-79
2023/04/03 12:37:23;;;;;;;1.50;1.40;;;19.20;39.00;;;;;;5023985;28;20247;-79
2023/04/03 12:39:56;;;;;;;1.75;1.60;;;19.20;39.50;;;;;;5007899;28;20569;-79
2023/04/03 12:42:42;;;;;;;2.13;1.45;;;19.30;38.30;;;;;;5024052;28;20221;-79
2023/04/03 12:45:15;;;;;;;1.60;1.50;;;19.20;38.30;;;;;;5023580;28;20185;-79
2023/04/03 12:47:42;;;;;;;1.70;1.40;;;19.20;38.10;;;;;;5039385;28;20290;-78
2023/04/03 12:50:19;;;;;;;1.60;1.50;;;19.20;38.10;;;;;;5015758;28;20200;-78
2023/04/03 12:52:50;;;;;;;1.40;1.30;;;19.20;38.50;;;;;;5037973;28;20192;-78
2023/04/03 12:55:20;;;;;;;1.80;1.63;;;19.30;39.40;;;;;;5023305;28;20240;-79
2023/04/03 12:57:47;;;;;;;2.13;1.63;;;19.30;38.30;;;;;;5039122;28;20225;-78
2023/04/03 13:00:29;;;;;;;1.67;1.33;;;19.30;38.10;;;;;;5022327;28;20223;-79
2023/04/03 13:02:58;;;;;;;1.60;1.50;;;19.40;38.80;;;;;;5022524;28;20209;-79
2023/04/03 13:05:26;;;;;;;2.05;1.23;;;19.40;39.80;;;;;;5020644;28;20228;-79
2023/04/03 13:07:58;;;;;;;1.80;1.55;;;19.40;38.10;;;;;;5037295;28;20224;-79